sensor_id;sensor_type;location;lat;lon;timestamp;P1;durP1;ratioP1;P2;durP2;ratioP2
22843;SDS011;11588;51.178;4.852;2023-03-29T00:00:09;5.18;;;2.65;;
22843;SDS011;11588;51.178;4.852;2023-03-29T00:02:38;3.92;;;2.75;;
22843;SDS011;11588;51.178;4.852;2023-03-29T00:05:03;9.35;;;2.83;;
22843;SDS011;11588;51.178;4.852;2023-03-29T00:07:29;5.32;;;2.55;;
22843;SDS011;11588;51.178;4.852;2023-03-29T00:09:57;5.63;;;2.55;;
22843;SDS011;11588;51.178;4.852;2023-03-29T00:12:25;7.07;;;2.72;;
22843;SDS011;11588;51.178;4.852;2023-03-29T00:14:51;5.00;;;2.70;;
22843;SDS011;11588;51.178;4.852;2023-03-29T00:17:16;8.05;;;2.50;;
22843;SDS011;11588;51.178;4.852;2023-03-29T00:19:43;6.43;;;2.88;;
22843;SDS011;11588;51.178;4.852;2023-03-29T00:22:09;5.63;;;2.53;;
22843;SDS011;11588;51.178;4.852;2023-03-29T00:24:37;7.03;;;2.80;;
22843;SDS011;11588;51.178;4.852;2023-03-29T00:27:12;4.25;;;2.30;;
22843;SDS011;11588;51.178;4.852;2023-03-29T00:29:37;5.65;;;2.58;;
22843;SDS011;11588;51.178;4.852;2023-03-29T00:32:02;8.43;;;2.97;;
22843;SDS011;11588;51.178;4.852;2023-03-29T00:34:28;6.97;;;3.08;;
22843;SDS011;11588;51.178;4.852;2023-03-29T00:36:57;7.93;;;2.90;;
22843;SDS011;11588;51.178;4.852;2023-03-29T00:39:24;5.25;;;3.00;;
22843;SDS011;11588;51.178;4.852;2023-03-29T00:41:52;6.13;;;2.95;;
22843;SDS011;11588;51.178;4.852;2023-03-29T00:46:51;5.10;;;2.78;;
22843;SDS011;11588;51.178;4.852;2023-03-29T00:49:16;5.68;;;2.65;;
22843;SDS011;11588;51.178;4.852;2023-03-29T00:51:41;8.43;;;2.95;;
22843;SDS011;11588;51.178;4.852;2023-03-29T00:54:12;5.30;;;2.80;;
22843;SDS011;11588;51.178;4.852;2023-03-29T00:56:40;4.38;;;2.63;;
22843;SDS011;11588;51.178;4.852;2023-03-29T01:01:44;5.75;;;2.20;;
22843;SDS011;11588;51.178;4.852;2023-03-29T01:04:13;5.10;;;2.60;;
22843;SDS011;11588;51.178;4.852;2023-03-29T01:06:44;5.22;;;2.55;;
22843;SDS011;11588;51.178;4.852;2023-03-29T01:09:12;5.25;;;2.95;;
22843;SDS011;11588;51.178;4.852;2023-03-29T01:11:40;7.00;;;2.85;;
22843;SDS011;11588;51.178;4.852;2023-03-29T01:14:09;6.18;;;2.58;;
22843;SDS011;11588;51.178;4.852;2023-03-29T01:16:36;6.22;;;2.75;;
22843;SDS011;11588;51.178;4.852;2023-03-29T01:19:04;4.45;;;2.58;;
22843;SDS011;11588;51.178;4.852;2023-03-29T01:21:34;5.03;;;2.97;;
22843;SDS011;11588;51.178;4.852;2023-03-29T01:24:06;5.88;;;2.90;;
22843;SDS011;11588;51.178;4.852;2023-03-29T01:26:42;4.80;;;2.70;;
22843;SDS011;11588;51.178;4.852;2023-03-29T01:29:12;7.88;;;3.25;;
22843;SDS011;11588;51.178;4.852;2023-03-29T01:31:41;4.75;;;2.90;;
22843;SDS011;11588;51.178;4.852;2023-03-29T01:34:14;7.10;;;3.30;;
22843;SDS011;11588;51.178;4.852;2023-03-29T01:36:43;6.95;;;3.10;;
22843;SDS011;11588;51.178;4.852;2023-03-29T01:39:10;5.00;;;3.10;;
22843;SDS011;11588;51.178;4.852;2023-03-29T01:49:33;6.63;;;2.80;;
22843;SDS011;11588;51.178;4.852;2023-03-29T01:52:05;5.55;;;2.92;;
22843;SDS011;11588;51.178;4.852;2023-03-29T01:54:33;5.38;;;3.03;;
22843;SDS011;11588;51.178;4.852;2023-03-29T01:56:59;9.57;;;3.15;;
22843;SDS011;11588;51.178;4.852;2023-03-29T01:59:28;5.80;;;2.92;;
22843;SDS011;11588;51.178;4.852;2023-03-29T02:01:57;4.35;;;2.58;;
22843;SDS011;11588;51.178;4.852;2023-03-29T02:04:28;5.53;;;2.97;;
22843;SDS011;11588;51.178;4.852;2023-03-29T02:06:55;5.75;;;2.90;;
22843;SDS011;11588;51.178;4.852;2023-03-29T02:09:24;6.07;;;3.08;;
22843;SDS011;11588;51.178;4.852;2023-03-29T02:11:50;7.15;;;2.90;;
22843;SDS011;11588;51.178;4.852;2023-03-29T02:14:17;7.18;;;3.40;;
22843;SDS011;11588;51.178;4.852;2023-03-29T02:16:42;9.23;;;3.28;;
22843;SDS011;11588;51.178;4.852;2023-03-29T02:19:10;4.95;;;3.15;;
22843;SDS011;11588;51.178;4.852;2023-03-29T02:21:39;5.28;;;3.20;;
22843;SDS011;11588;51.178;4.852;2023-03-29T02:24:07;6.05;;;3.25;;
22843;SDS011;11588;51.178;4.852;2023-03-29T02:26:34;9.80;;;4.38;;
22843;SDS011;11588;51.178;4.852;2023-03-29T02:29:00;6.35;;;3.10;;
22843;SDS011;11588;51.178;4.852;2023-03-29T02:31:28;6.80;;;3.10;;
22843;SDS011;11588;51.178;4.852;2023-03-29T02:34:01;7.03;;;3.08;;
22843;SDS011;11588;51.178;4.852;2023-03-29T02:39:05;6.32;;;3.65;;
22843;SDS011;11588;51.178;4.852;2023-03-29T02:41:35;5.60;;;3.00;;
22843;SDS011;11588;51.178;4.852;2023-03-29T02:44:02;6.60;;;3.25;;
22843;SDS011;11588;51.178;4.852;2023-03-29T02:46:29;6.45;;;3.45;;
22843;SDS011;11588;51.178;4.852;2023-03-29T02:48:55;4.63;;;3.10;;
22843;SDS011;11588;51.178;4.852;2023-03-29T02:51:25;5.03;;;2.92;;
22843;SDS011;11588;51.178;4.852;2023-03-29T02:53:57;5.35;;;3.20;;
22843;SDS011;11588;51.178;4.852;2023-03-29T02:56:24;8.27;;;3.40;;
22843;SDS011;11588;51.178;4.852;2023-03-29T02:58:50;4.35;;;2.95;;
22843;SDS011;11588;51.178;4.852;2023-03-29T03:01:15;7.72;;;3.65;;
22843;SDS011;11588;51.178;4.852;2023-03-29T03:03:44;4.50;;;3.30;;
22843;SDS011;11588;51.178;4.852;2023-03-29T03:06:10;7.78;;;3.40;;
22843;SDS011;11588;51.178;4.852;2023-03-29T03:08:37;5.20;;;3.25;;
22843;SDS011;11588;51.178;4.852;2023-03-29T03:11:02;6.82;;;3.13;;
22843;SDS011;11588;51.178;4.852;2023-03-29T03:13:30;7.18;;;3.25;;
22843;SDS011;11588;51.178;4.852;2023-03-29T03:15:55;6.63;;;3.42;;
22843;SDS011;11588;51.178;4.852;2023-03-29T03:18:21;6.93;;;3.20;;
22843;SDS011;11588;51.178;4.852;2023-03-29T03:20:56;7.13;;;3.40;;
22843;SDS011;11588;51.178;4.852;2023-03-29T03:23:23;4.82;;;2.97;;
22843;SDS011;11588;51.178;4.852;2023-03-29T03:25:49;5.25;;;3.30;;
22843;SDS011;11588;51.178;4.852;2023-03-29T03:28:16;5.00;;;3.70;;
22843;SDS011;11588;51.178;4.852;2023-03-29T03:30:41;6.57;;;3.53;;
22843;SDS011;11588;51.178;4.852;2023-03-29T03:33:10;5.53;;;3.88;;
22843;SDS011;11588;51.178;4.852;2023-03-29T03:35:35;5.70;;;3.17;;
22843;SDS011;11588;51.178;4.852;2023-03-29T03:38:04;7.97;;;3.83;;
22843;SDS011;11588;51.178;4.852;2023-03-29T03:40:30;7.07;;;3.45;;
22843;SDS011;11588;51.178;4.852;2023-03-29T03:42:56;8.88;;;3.47;;
22843;SDS011;11588;51.178;4.852;2023-03-29T03:45:21;9.20;;;3.53;;
22843;SDS011;11588;51.178;4.852;2023-03-29T03:47:46;8.10;;;4.07;;
22843;SDS011;11588;51.178;4.852;2023-03-29T03:50:12;10.20;;;4.18;;
22843;SDS011;11588;51.178;4.852;2023-03-29T03:52:37;7.85;;;3.42;;
22843;SDS011;11588;51.178;4.852;2023-03-29T03:55:03;8.48;;;3.80;;
22843;SDS011;11588;51.178;4.852;2023-03-29T03:57:28;6.32;;;3.53;;
22843;SDS011;11588;51.178;4.852;2023-03-29T03:59:54;6.57;;;3.65;;
22843;SDS011;11588;51.178;4.852;2023-03-29T04:02:20;6.00;;;3.40;;
22843;SDS011;11588;51.178;4.852;2023-03-29T04:04:46;5.35;;;2.92;;
22843;SDS011;11588;51.178;4.852;2023-03-29T04:07:11;6.55;;;3.30;;
22843;SDS011;11588;51.178;4.852;2023-03-29T04:09:38;7.45;;;3.40;;
22843;SDS011;11588;51.178;4.852;2023-03-29T04:12:03;8.65;;;4.30;;
22843;SDS011;11588;51.178;4.852;2023-03-29T04:14:29;6.53;;;3.92;;
22843;SDS011;11588;51.178;4.852;2023-03-29T04:16:57;9.27;;;3.92;;
22843;SDS011;11588;51.178;4.852;2023-03-29T04:19:23;6.10;;;4.05;;
22843;SDS011;11588;51.178;4.852;2023-03-29T04:21:48;7.22;;;3.97;;
22843;SDS011;11588;51.178;4.852;2023-03-29T04:24:16;8.82;;;4.32;;
22843;SDS011;11588;51.178;4.852;2023-03-29T04:26:41;7.20;;;3.80;;
22843;SDS011;11588;51.178;4.852;2023-03-29T04:29:07;7.65;;;3.50;;
22843;SDS011;11588;51.178;4.852;2023-03-29T04:31:33;7.20;;;4.00;;
22843;SDS011;11588;51.178;4.852;2023-03-29T04:33:58;8.70;;;3.72;;
22843;SDS011;11588;51.178;4.852;2023-03-29T04:36:23;6.75;;;3.78;;
22843;SDS011;11588;51.178;4.852;2023-03-29T04:38:49;8.18;;;4.20;;
22843;SDS011;11588;51.178;4.852;2023-03-29T04:41:19;10.13;;;4.28;;
22843;SDS011;11588;51.178;4.852;2023-03-29T04:43:45;9.40;;;4.45;;
22843;SDS011;11588;51.178;4.852;2023-03-29T04:46:11;6.30;;;3.70;;
22843;SDS011;11588;51.178;4.852;2023-03-29T04:48:39;7.70;;;4.43;;
22843;SDS011;11588;51.178;4.852;2023-03-29T04:51:04;10.27;;;3.92;;
22843;SDS011;11588;51.178;4.852;2023-03-29T04:53:30;7.68;;;4.00;;
22843;SDS011;11588;51.178;4.852;2023-03-29T04:55:57;8.13;;;4.28;;
22843;SDS011;11588;51.178;4.852;2023-03-29T04:58:23;8.10;;;3.95;;
22843;SDS011;11588;51.178;4.852;2023-03-29T05:00:49;8.18;;;4.68;;
22843;SDS011;11588;51.178;4.852;2023-03-29T05:03:17;9.50;;;4.15;;
22843;SDS011;11588;51.178;4.852;2023-03-29T05:05:43;5.05;;;4.05;;
22843;SDS011;11588;51.178;4.852;2023-03-29T05:08:08;8.25;;;4.28;;
22843;SDS011;11588;51.178;4.852;2023-03-29T05:10:34;6.10;;;4.03;;
22843;SDS011;11588;51.178;4.852;2023-03-29T05:13:00;8.85;;;4.43;;
22843;SDS011;11588;51.178;4.852;2023-03-29T05:15:26;8.38;;;4.50;;
22843;SDS011;11588;51.178;4.852;2023-03-29T05:17:51;8.70;;;4.63;;
22843;SDS011;11588;51.178;4.852;2023-03-29T05:20:17;9.73;;;4.45;;
22843;SDS011;11588;51.178;4.852;2023-03-29T05:22:43;9.85;;;4.53;;
22843;SDS011;11588;51.178;4.852;2023-03-29T05:25:09;8.45;;;4.50;;
22843;SDS011;11588;51.178;4.852;2023-03-29T05:27:37;10.02;;;4.20;;
22843;SDS011;11588;51.178;4.852;2023-03-29T05:30:05;9.27;;;4.18;;
22843;SDS011;11588;51.178;4.852;2023-03-29T05:32:30;10.98;;;5.00;;
22843;SDS011;11588;51.178;4.852;2023-03-29T05:34:56;6.40;;;4.72;;
22843;SDS011;11588;51.178;4.852;2023-03-29T05:37:21;6.38;;;4.40;;
22843;SDS011;11588;51.178;4.852;2023-03-29T05:39:49;7.20;;;4.95;;
22843;SDS011;11588;51.178;4.852;2023-03-29T05:42:14;9.00;;;4.68;;
22843;SDS011;11588;51.178;4.852;2023-03-29T05:44:40;7.68;;;4.65;;
22843;SDS011;11588;51.178;4.852;2023-03-29T05:47:07;12.77;;;5.03;;
22843;SDS011;11588;51.178;4.852;2023-03-29T05:49:32;7.57;;;4.65;;
22843;SDS011;11588;51.178;4.852;2023-03-29T05:51:58;9.20;;;4.57;;
22843;SDS011;11588;51.178;4.852;2023-03-29T05:54:24;9.93;;;4.60;;
22843;SDS011;11588;51.178;4.852;2023-03-29T05:56:50;8.95;;;4.72;;
22843;SDS011;11588;51.178;4.852;2023-03-29T05:59:15;11.68;;;4.72;;
22843;SDS011;11588;51.178;4.852;2023-03-29T06:01:41;7.10;;;4.25;;
22843;SDS011;11588;51.178;4.852;2023-03-29T06:04:11;5.90;;;4.40;;
22843;SDS011;11588;51.178;4.852;2023-03-29T06:06:37;9.07;;;4.45;;
22843;SDS011;11588;51.178;4.852;2023-03-29T06:09:02;10.05;;;4.35;;
22843;SDS011;11588;51.178;4.852;2023-03-29T06:11:28;8.55;;;4.38;;
22843;SDS011;11588;51.178;4.852;2023-03-29T06:13:54;9.85;;;4.70;;
22843;SDS011;11588;51.178;4.852;2023-03-29T06:16:19;8.20;;;4.35;;
22843;SDS011;11588;51.178;4.852;2023-03-29T06:18:45;12.52;;;4.72;;
22843;SDS011;11588;51.178;4.852;2023-03-29T06:21:11;8.73;;;4.82;;
22843;SDS011;11588;51.178;4.852;2023-03-29T06:23:37;13.07;;;5.65;;
22843;SDS011;11588;51.178;4.852;2023-03-29T06:26:02;9.40;;;5.20;;
22843;SDS011;11588;51.178;4.852;2023-03-29T06:28:28;8.77;;;4.63;;
22843;SDS011;11588;51.178;4.852;2023-03-29T06:30:53;8.30;;;5.28;;
22843;SDS011;11588;51.178;4.852;2023-03-29T06:33:21;10.40;;;5.15;;
22843;SDS011;11588;51.178;4.852;2023-03-29T06:35:47;9.60;;;4.85;;
22843;SDS011;11588;51.178;4.852;2023-03-29T06:38:15;13.75;;;5.38;;
22843;SDS011;11588;51.178;4.852;2023-03-29T06:40:41;14.38;;;5.20;;
22843;SDS011;11588;51.178;4.852;2023-03-29T06:43:08;10.02;;;4.82;;
22843;SDS011;11588;51.178;4.852;2023-03-29T06:45:36;9.25;;;4.90;;
22843;SDS011;11588;51.178;4.852;2023-03-29T06:48:02;9.15;;;4.35;;
22843;SDS011;11588;51.178;4.852;2023-03-29T06:50:28;10.23;;;5.25;;
22843;SDS011;11588;51.178;4.852;2023-03-29T06:52:54;14.82;;;5.70;;
22843;SDS011;11588;51.178;4.852;2023-03-29T06:55:20;22.10;;;5.85;;
22843;SDS011;11588;51.178;4.852;2023-03-29T06:57:47;13.20;;;5.50;;
22843;SDS011;11588;51.178;4.852;2023-03-29T07:00:15;18.67;;;5.70;;
22843;SDS011;11588;51.178;4.852;2023-03-29T07:02:44;13.20;;;5.85;;
22843;SDS011;11588;51.178;4.852;2023-03-29T07:05:10;10.68;;;5.88;;
22843;SDS011;11588;51.178;4.852;2023-03-29T07:07:39;12.60;;;7.35;;
22843;SDS011;11588;51.178;4.852;2023-03-29T07:10:22;10.02;;;7.68;;
22843;SDS011;11588;51.178;4.852;2023-03-29T07:12:49;11.82;;;5.88;;
22843;SDS011;11588;51.178;4.852;2023-03-29T07:15:15;11.68;;;5.80;;
22843;SDS011;11588;51.178;4.852;2023-03-29T07:17:42;12.40;;;5.70;;
22843;SDS011;11588;51.178;4.852;2023-03-29T07:20:08;10.73;;;5.43;;
22843;SDS011;11588;51.178;4.852;2023-03-29T07:22:39;9.05;;;5.32;;
22843;SDS011;11588;51.178;4.852;2023-03-29T07:25:06;13.60;;;5.90;;
22843;SDS011;11588;51.178;4.852;2023-03-29T07:27:35;10.07;;;5.47;;
22843;SDS011;11588;51.178;4.852;2023-03-29T07:30:01;9.93;;;6.38;;
22843;SDS011;11588;51.178;4.852;2023-03-29T07:32:29;10.25;;;5.65;;
22843;SDS011;11588;51.178;4.852;2023-03-29T07:34:57;10.27;;;5.38;;
22843;SDS011;11588;51.178;4.852;2023-03-29T07:37:23;12.82;;;5.57;;
22843;SDS011;11588;51.178;4.852;2023-03-29T07:39:49;10.10;;;5.25;;
22843;SDS011;11588;51.178;4.852;2023-03-29T07:42:16;13.07;;;6.13;;
22843;SDS011;11588;51.178;4.852;2023-03-29T07:44:41;15.57;;;6.05;;
22843;SDS011;11588;51.178;4.852;2023-03-29T07:47:08;10.23;;;5.80;;
22843;SDS011;11588;51.178;4.852;2023-03-29T07:49:35;9.10;;;5.95;;
22843;SDS011;11588;51.178;4.852;2023-03-29T07:52:00;13.30;;;6.45;;
22843;SDS011;11588;51.178;4.852;2023-03-29T07:54:28;13.50;;;6.78;;
22843;SDS011;11588;51.178;4.852;2023-03-29T07:56:56;15.93;;;7.13;;
22843;SDS011;11588;51.178;4.852;2023-03-29T07:59:21;12.70;;;6.50;;
22843;SDS011;11588;51.178;4.852;2023-03-29T08:01:47;13.63;;;7.32;;
22843;SDS011;11588;51.178;4.852;2023-03-29T08:04:13;14.70;;;6.78;;
22843;SDS011;11588;51.178;4.852;2023-03-29T08:06:39;13.32;;;6.95;;
22843;SDS011;11588;51.178;4.852;2023-03-29T08:09:05;11.23;;;7.43;;
22843;SDS011;11588;51.178;4.852;2023-03-29T08:11:30;14.27;;;7.35;;
22843;SDS011;11588;51.178;4.852;2023-03-29T08:13:58;10.65;;;7.32;;
22843;SDS011;11588;51.178;4.852;2023-03-29T08:16:23;14.10;;;7.47;;
22843;SDS011;11588;51.178;4.852;2023-03-29T08:18:49;13.75;;;7.28;;
22843;SDS011;11588;51.178;4.852;2023-03-29T08:21:15;13.25;;;8.40;;
22843;SDS011;11588;51.178;4.852;2023-03-29T08:23:40;14.88;;;7.40;;
22843;SDS011;11588;51.178;4.852;2023-03-29T08:26:06;13.65;;;8.18;;
22843;SDS011;11588;51.178;4.852;2023-03-29T08:28:32;17.58;;;8.05;;
22843;SDS011;11588;51.178;4.852;2023-03-29T08:30:58;16.98;;;7.97;;
22843;SDS011;11588;51.178;4.852;2023-03-29T08:33:24;14.57;;;7.88;;
22843;SDS011;11588;51.178;4.852;2023-03-29T08:35:50;11.82;;;7.95;;
22843;SDS011;11588;51.178;4.852;2023-03-29T08:38:15;13.20;;;7.45;;
22843;SDS011;11588;51.178;4.852;2023-03-29T08:40:45;13.70;;;8.45;;
22843;SDS011;11588;51.178;4.852;2023-03-29T08:43:18;11.07;;;7.65;;
22843;SDS011;11588;51.178;4.852;2023-03-29T08:45:48;11.05;;;7.78;;
22843;SDS011;11588;51.178;4.852;2023-03-29T08:50:46;10.30;;;6.80;;
22843;SDS011;11588;51.178;4.852;2023-03-29T08:53:16;11.27;;;6.82;;
22843;SDS011;11588;51.178;4.852;2023-03-29T08:55:44;15.07;;;7.70;;
22843;SDS011;11588;51.178;4.852;2023-03-29T08:58:13;15.38;;;8.68;;
22843;SDS011;11588;51.178;4.852;2023-03-29T09:00:41;13.05;;;7.30;;
22843;SDS011;11588;51.178;4.852;2023-03-29T09:03:08;12.02;;;6.65;;
22843;SDS011;11588;51.178;4.852;2023-03-29T09:05:36;8.55;;;7.00;;
22843;SDS011;11588;51.178;4.852;2023-03-29T09:08:10;12.45;;;7.35;;
22843;SDS011;11588;51.178;4.852;2023-03-29T09:10:38;11.98;;;6.88;;
22843;SDS011;11588;51.178;4.852;2023-03-29T09:13:09;12.40;;;7.15;;
22843;SDS011;11588;51.178;4.852;2023-03-29T09:15:41;11.88;;;6.47;;
22843;SDS011;11588;51.178;4.852;2023-03-29T09:18:12;15.82;;;7.35;;
22843;SDS011;11588;51.178;4.852;2023-03-29T09:20:46;12.88;;;7.30;;
22843;SDS011;11588;51.178;4.852;2023-03-29T09:31:13;9.45;;;6.57;;
22843;SDS011;11588;51.178;4.852;2023-03-29T09:39:10;13.13;;;6.28;;
22843;SDS011;11588;51.178;4.852;2023-03-29T09:41:41;11.00;;;6.65;;
22843;SDS011;11588;51.178;4.852;2023-03-29T09:44:10;14.20;;;6.40;;
22843;SDS011;11588;51.178;4.852;2023-03-29T09:46:40;17.60;;;6.78;;
22843;SDS011;11588;51.178;4.852;2023-03-29T09:49:10;9.35;;;5.53;;
22843;SDS011;11588;51.178;4.852;2023-03-29T09:51:36;9.00;;;6.07;;
22843;SDS011;11588;51.178;4.852;2023-03-29T09:54:02;13.43;;;6.03;;
22843;SDS011;11588;51.178;4.852;2023-03-29T09:56:28;11.52;;;6.22;;
22843;SDS011;11588;51.178;4.852;2023-03-29T09:58:54;10.85;;;6.07;;
22843;SDS011;11588;51.178;4.852;2023-03-29T10:01:19;8.90;;;5.15;;
22843;SDS011;11588;51.178;4.852;2023-03-29T10:03:48;10.88;;;6.13;;
22843;SDS011;11588;51.178;4.852;2023-03-29T10:06:15;10.63;;;6.45;;
22843;SDS011;11588;51.178;4.852;2023-03-29T10:08:45;8.25;;;5.57;;
22843;SDS011;11588;51.178;4.852;2023-03-29T10:11:12;9.65;;;5.65;;
22843;SDS011;11588;51.178;4.852;2023-03-29T10:13:43;12.63;;;6.13;;
22843;SDS011;11588;51.178;4.852;2023-03-29T10:18:44;9.43;;;5.95;;
22843;SDS011;11588;51.178;4.852;2023-03-29T10:21:12;8.07;;;4.72;;
22843;SDS011;11588;51.178;4.852;2023-03-29T10:23:39;10.48;;;5.50;;
22843;SDS011;11588;51.178;4.852;2023-03-29T10:26:08;9.02;;;5.85;;
22843;SDS011;11588;51.178;4.852;2023-03-29T10:28:35;13.05;;;6.38;;
22843;SDS011;11588;51.178;4.852;2023-03-29T10:31:02;8.07;;;5.32;;
22843;SDS011;11588;51.178;4.852;2023-03-29T10:33:31;9.25;;;5.70;;
22843;SDS011;11588;51.178;4.852;2023-03-29T10:35:57;10.55;;;5.82;;
22843;SDS011;11588;51.178;4.852;2023-03-29T10:38:24;11.95;;;5.80;;
22843;SDS011;11588;51.178;4.852;2023-03-29T10:40:52;9.07;;;5.75;;
22843;SDS011;11588;51.178;4.852;2023-03-29T10:43:20;9.48;;;5.20;;
22843;SDS011;11588;51.178;4.852;2023-03-29T10:45:47;8.18;;;5.38;;
22843;SDS011;11588;51.178;4.852;2023-03-29T10:48:14;9.13;;;4.95;;
22843;SDS011;11588;51.178;4.852;2023-03-29T10:50:40;9.73;;;5.55;;
22843;SDS011;11588;51.178;4.852;2023-03-29T10:55:45;10.15;;;5.80;;
22843;SDS011;11588;51.178;4.852;2023-03-29T10:58:23;11.40;;;5.57;;
22843;SDS011;11588;51.178;4.852;2023-03-29T11:00:51;8.32;;;5.22;;
22843;SDS011;11588;51.178;4.852;2023-03-29T11:08:25;12.27;;;5.80;;
22843;SDS011;11588;51.178;4.852;2023-03-29T11:10:54;8.90;;;5.60;;
22843;SDS011;11588;51.178;4.852;2023-03-29T11:16:30;10.52;;;5.45;;
22843;SDS011;11588;51.178;4.852;2023-03-29T11:21:39;10.07;;;5.40;;
22843;SDS011;11588;51.178;4.852;2023-03-29T11:24:13;8.25;;;5.38;;
22843;SDS011;11588;51.178;4.852;2023-03-29T11:26:45;7.38;;;4.55;;
22843;SDS011;11588;51.178;4.852;2023-03-29T11:29:19;8.73;;;4.85;;
22843;SDS011;11588;51.178;4.852;2023-03-29T11:34:37;10.77;;;4.50;;
22843;SDS011;11588;51.178;4.852;2023-03-29T11:45:24;5.32;;;3.92;;
22843;SDS011;11588;51.178;4.852;2023-03-29T11:47:50;7.22;;;4.22;;
22843;SDS011;11588;51.178;4.852;2023-03-29T11:56:08;4.05;;;3.65;;
22843;SDS011;11588;51.178;4.852;2023-03-29T11:58:40;8.75;;;4.22;;
22843;SDS011;11588;51.178;4.852;2023-03-29T12:01:09;7.72;;;4.05;;
22843;SDS011;11588;51.178;4.852;2023-03-29T12:03:38;7.22;;;4.13;;
22843;SDS011;11588;51.178;4.852;2023-03-29T12:06:13;8.25;;;4.13;;
22843;SDS011;11588;51.178;4.852;2023-03-29T12:08:47;9.95;;;3.53;;
22843;SDS011;11588;51.178;4.852;2023-03-29T12:11:18;6.25;;;2.97;;
22843;SDS011;11588;51.178;4.852;2023-03-29T12:13:49;9.10;;;3.35;;
22843;SDS011;11588;51.178;4.852;2023-03-29T12:18:49;4.63;;;2.85;;
22843;SDS011;11588;51.178;4.852;2023-03-29T12:21:19;6.18;;;2.78;;
22843;SDS011;11588;51.178;4.852;2023-03-29T12:23:45;6.97;;;3.45;;
22843;SDS011;11588;51.178;4.852;2023-03-29T12:31:47;3.55;;;2.58;;
22843;SDS011;11588;51.178;4.852;2023-03-29T12:39:44;7.18;;;3.58;;
22843;SDS011;11588;51.178;4.852;2023-03-29T12:42:13;8.02;;;3.80;;
22843;SDS011;11588;51.178;4.852;2023-03-29T12:44:49;3.90;;;3.00;;
22843;SDS011;11588;51.178;4.852;2023-03-29T12:47:19;6.05;;;3.10;;
22843;SDS011;11588;51.178;4.852;2023-03-29T12:49:45;6.80;;;3.10;;
22843;SDS011;11588;51.178;4.852;2023-03-29T12:52:20;7.35;;;3.58;;
22843;SDS011;11588;51.178;4.852;2023-03-29T12:54:53;6.55;;;2.83;;
22843;SDS011;11588;51.178;4.852;2023-03-29T12:59:52;8.07;;;2.78;;
22843;SDS011;11588;51.178;4.852;2023-03-29T13:02:25;8.02;;;2.95;;
22843;SDS011;11588;51.178;4.852;2023-03-29T13:04:55;7.22;;;2.70;;
22843;SDS011;11588;51.178;4.852;2023-03-29T13:07:31;3.65;;;2.28;;
22843;SDS011;11588;51.178;4.852;2023-03-29T13:09:59;6.72;;;2.55;;
22843;SDS011;11588;51.178;4.852;2023-03-29T13:15:03;6.53;;;2.08;;
22843;SDS011;11588;51.178;4.852;2023-03-29T13:22:40;7.43;;;2.10;;
22843;SDS011;11588;51.178;4.852;2023-03-29T13:27:47;9.80;;;2.88;;
22843;SDS011;11588;51.178;4.852;2023-03-29T13:30:19;6.45;;;2.40;;
22843;SDS011;11588;51.178;4.852;2023-03-29T13:32:53;11.43;;;2.85;;
22843;SDS011;11588;51.178;4.852;2023-03-29T13:42:58;5.93;;;2.80;;
22843;SDS011;11588;51.178;4.852;2023-03-29T13:45:25;4.10;;;1.75;;
22843;SDS011;11588;51.178;4.852;2023-03-29T13:50:33;2.25;;;1.90;;
22843;SDS011;11588;51.178;4.852;2023-03-29T13:58:47;8.25;;;2.42;;
22843;SDS011;11588;51.178;4.852;2023-03-29T14:03:50;5.57;;;2.47;;
22843;SDS011;11588;51.178;4.852;2023-03-29T14:06:17;3.75;;;2.33;;
22843;SDS011;11588;51.178;4.852;2023-03-29T14:08:45;4.32;;;2.30;;
22843;SDS011;11588;51.178;4.852;2023-03-29T14:11:18;4.97;;;2.53;;
22843;SDS011;11588;51.178;4.852;2023-03-29T14:13:45;5.82;;;2.88;;
22843;SDS011;11588;51.178;4.852;2023-03-29T14:16:11;6.85;;;3.00;;
22843;SDS011;11588;51.178;4.852;2023-03-29T14:18:39;7.35;;;2.70;;
22843;SDS011;11588;51.178;4.852;2023-03-29T14:21:06;5.38;;;3.42;;
22843;SDS011;11588;51.178;4.852;2023-03-29T14:23:33;5.47;;;3.40;;
22843;SDS011;11588;51.178;4.852;2023-03-29T14:28:34;5.78;;;3.47;;
22843;SDS011;11588;51.178;4.852;2023-03-29T14:31:00;7.28;;;3.08;;
22843;SDS011;11588;51.178;4.852;2023-03-29T14:33:28;9.45;;;3.58;;
22843;SDS011;11588;51.178;4.852;2023-03-29T14:35:55;6.93;;;4.00;;
22843;SDS011;11588;51.178;4.852;2023-03-29T14:38:21;7.13;;;4.55;;
22843;SDS011;11588;51.178;4.852;2023-03-29T14:40:48;5.53;;;3.33;;
22843;SDS011;11588;51.178;4.852;2023-03-29T14:43:16;8.43;;;3.45;;
22843;SDS011;11588;51.178;4.852;2023-03-29T14:45:42;4.78;;;3.25;;
22843;SDS011;11588;51.178;4.852;2023-03-29T14:48:08;3.47;;;2.53;;
22843;SDS011;11588;51.178;4.852;2023-03-29T14:50:35;5.10;;;2.78;;
22843;SDS011;11588;51.178;4.852;2023-03-29T14:53:01;4.40;;;2.47;;
22843;SDS011;11588;51.178;4.852;2023-03-29T14:55:27;9.93;;;2.90;;
22843;SDS011;11588;51.178;4.852;2023-03-29T14:57:53;5.38;;;2.85;;
22843;SDS011;11588;51.178;4.852;2023-03-29T15:00:24;3.80;;;2.85;;
22843;SDS011;11588;51.178;4.852;2023-03-29T15:02:57;5.45;;;3.20;;
22843;SDS011;11588;51.178;4.852;2023-03-29T15:05:24;5.45;;;3.20;;
22843;SDS011;11588;51.178;4.852;2023-03-29T15:07:52;5.25;;;2.90;;
22843;SDS011;11588;51.178;4.852;2023-03-29T15:10:20;4.95;;;3.50;;
22843;SDS011;11588;51.178;4.852;2023-03-29T15:12:46;4.50;;;3.78;;
22843;SDS011;11588;51.178;4.852;2023-03-29T15:15:11;6.20;;;3.80;;
22843;SDS011;11588;51.178;4.852;2023-03-29T15:17:38;5.78;;;4.03;;
22843;SDS011;11588;51.178;4.852;2023-03-29T15:20:06;7.13;;;4.60;;
22843;SDS011;11588;51.178;4.852;2023-03-29T15:22:37;5.40;;;4.40;;
22843;SDS011;11588;51.178;4.852;2023-03-29T15:25:07;7.82;;;4.20;;
22843;SDS011;11588;51.178;4.852;2023-03-29T15:30:10;5.55;;;4.03;;
22843;SDS011;11588;51.178;4.852;2023-03-29T15:32:36;8.10;;;4.07;;
22843;SDS011;11588;51.178;4.852;2023-03-29T15:35:04;8.13;;;4.32;;
22843;SDS011;11588;51.178;4.852;2023-03-29T15:37:30;8.35;;;4.35;;
22843;SDS011;11588;51.178;4.852;2023-03-29T15:39:55;6.95;;;4.40;;
22843;SDS011;11588;51.178;4.852;2023-03-29T15:42:23;6.35;;;4.30;;
22843;SDS011;11588;51.178;4.852;2023-03-29T15:44:51;8.68;;;4.13;;
22843;SDS011;11588;51.178;4.852;2023-03-29T15:47:17;10.13;;;5.00;;
22843;SDS011;11588;51.178;4.852;2023-03-29T15:49:45;7.30;;;4.80;;
22843;SDS011;11588;51.178;4.852;2023-03-29T15:52:11;9.02;;;4.82;;
22843;SDS011;11588;51.178;4.852;2023-03-29T15:54:36;8.43;;;4.75;;
22843;SDS011;11588;51.178;4.852;2023-03-29T15:57:03;8.57;;;4.60;;
22843;SDS011;11588;51.178;4.852;2023-03-29T15:59:29;9.90;;;4.50;;
22843;SDS011;11588;51.178;4.852;2023-03-29T16:01:55;8.00;;;4.68;;
22843;SDS011;11588;51.178;4.852;2023-03-29T16:04:22;5.22;;;4.15;;
22843;SDS011;11588;51.178;4.852;2023-03-29T16:06:50;6.88;;;4.50;;
22843;SDS011;11588;51.178;4.852;2023-03-29T16:09:16;6.28;;;4.10;;
22843;SDS011;11588;51.178;4.852;2023-03-29T16:11:43;6.88;;;4.47;;
22843;SDS011;11588;51.178;4.852;2023-03-29T16:16:43;6.05;;;5.03;;
22843;SDS011;11588;51.178;4.852;2023-03-29T16:19:08;8.73;;;4.80;;
22843;SDS011;11588;51.178;4.852;2023-03-29T16:21:34;9.48;;;5.15;;
22843;SDS011;11588;51.178;4.852;2023-03-29T16:23:59;12.25;;;5.35;;
22843;SDS011;11588;51.178;4.852;2023-03-29T16:26:25;6.68;;;4.60;;
22843;SDS011;11588;51.178;4.852;2023-03-29T16:28:58;9.38;;;5.25;;
22843;SDS011;11588;51.178;4.852;2023-03-29T16:31:25;8.90;;;5.93;;
22843;SDS011;11588;51.178;4.852;2023-03-29T16:33:52;11.43;;;5.30;;
22843;SDS011;11588;51.178;4.852;2023-03-29T16:36:19;9.73;;;5.30;;
22843;SDS011;11588;51.178;4.852;2023-03-29T16:38:44;9.00;;;5.75;;
22843;SDS011;11588;51.178;4.852;2023-03-29T16:41:14;9.43;;;5.22;;